罗盘
风向 的 风向 290° 多倫多皮爾遜國際機場 6L/24R
风: 15 kt, 4 beaufort

6 kt

13 kt
改变
0 1.000 2.000 3.000 4.000 5.000
FEW 2.000 ft
METAR CYHM 171300Z 29015KT 15SM FEW020 10/05 A2985 RMK CF1 CF TR SLP111

METAR 多倫多皮爾遜國際機場

多倫多皮爾遜國際機場是Toronto,加拿大中的大型机场。 该机场有6条跑道: 6L/24R, 6R/24L, 5/23, 15L/33R, 15R/33L 和 15/33.

这份报告是针对2022年5月17日 09:00, 当地时间在John C. Munro Hamilton International Airport进行的。

机场观察

风向为290°,速度为15 kt。

可见度为24 km。

有几云在2.000 ft的高度。 没有观察到天花板。

温度为10 °C,阵风为6 °C。 露点为5 °C,相对湿度为71%。 海平面上的气压为1011 hPa (QNH)。

白天

今天,太阳从05:50升起,在20:38降落。 这适用于多倫多皮爾遜國際機場,世界夏令时可能有所不同。 当地时间与世界标准时间之间的时差为-4 小时。 夏令时目前正在进行中。

公司介绍

我们没有关于这个机场的公司信息。

体会

到Vliegles.nl去找飞行课程,跳伞和其他飞行体验。 浏览页面,了解多倫多皮爾遜國際機場附近所有可用的活动。 你也可以使用搜索功能来寻找你所在地附近的特定飞行课程、跳伞或其他飞行体验。

您会帮助我们保持Metar-Taf.com正常运行吗?
您的贡献有助于网站的进一步开发并支付费用。

没有更多广告

您是捐款5美元还是更多?然后,我们将永远不会再向您展示广告,这是我们永恒的感谢!
捐赠前先登录

跑道

Id 标题 侧风 逆风
6L/24R 047°-227° 13 kt 6 kt
6R/24L 047°-227° 13 kt 6 kt
5/23 047°-227° 13 kt 6 kt
15L/33R 137°-317° 6 kt 13 kt
15R/33L 137°-317° 6 kt 13 kt
15/33 137°-317° 6 kt 13 kt

逆风成分最大的方向会被突出显示,并用于横风计算。 这并不一定意味着这个方向在使用。

乌云

2.000 ft FEW 几云

温度 & 天气

温度 10 °C
露点 5 °C
相对湿度 71%
风寒 6 °C
Kp-index 3  

评论

SLP111海平面压力为1011,1 hPa (29,86 inHg)
CF1 CF TR

公司介绍

新增公司

下载我们的应用程序

在您的手机和平板电脑上轻松访问所有航空天气。
有许多网站上没有的功能,如离线支持和个人机场列表。

Studio Eveline

Benalmádena
España